sensor_id;sensor_type;location;lat;lon;timestamp;pressure;altitude;pressure_sealevel;temperature;humidity
69751;BME280;57335;52.288;6.056;2023-01-30T00:01:37;101643.09;;;5.01;100.00
69751;BME280;57335;52.288;6.056;2023-01-30T00:04:03;101642.94;;;5.03;100.00
69751;BME280;57335;52.288;6.056;2023-01-30T00:06:30;101637.59;;;5.04;100.00
69751;BME280;57335;52.288;6.056;2023-01-30T00:08:56;101630.47;;;5.06;100.00
69751;BME280;57335;52.288;6.056;2023-01-30T00:11:23;101622.00;;;5.04;100.00
69751;BME280;57335;52.288;6.056;2023-01-30T00:13:50;101606.50;;;5.12;100.00
69751;BME280;57335;52.288;6.056;2023-01-30T00:16:17;101609.59;;;5.16;100.00
69751;BME280;57335;52.288;6.056;2023-01-30T00:18:43;101621.13;;;5.13;100.00
69751;BME280;57335;52.288;6.056;2023-01-30T00:21:12;101632.53;;;5.20;100.00
69751;BME280;57335;52.288;6.056;2023-01-30T00:23:39;101628.13;;;5.21;100.00
69751;BME280;57335;52.288;6.056;2023-01-30T00:26:06;101617.59;;;5.23;100.00
69751;BME280;57335;52.288;6.056;2023-01-30T00:28:33;101604.59;;;5.23;100.00
69751;BME280;57335;52.288;6.056;2023-01-30T00:30:59;101598.47;;;5.24;100.00
69751;BME280;57335;52.288;6.056;2023-01-30T00:33:26;101591.84;;;5.29;100.00
69751;BME280;57335;52.288;6.056;2023-01-30T00:35:54;101593.16;;;5.33;100.00
69751;BME280;57335;52.288;6.056;2023-01-30T00:38:22;101583.72;;;5.32;100.00
69751;BME280;57335;52.288;6.056;2023-01-30T00:40:49;101587.50;;;5.38;100.00
69751;BME280;57335;52.288;6.056;2023-01-30T00:43:17;101578.72;;;5.39;100.00
69751;BME280;57335;52.288;6.056;2023-01-30T00:45:43;101561.38;;;5.39;100.00
69751;BME280;57335;52.288;6.056;2023-01-30T00:48:10;101556.66;;;5.43;100.00
69751;BME280;57335;52.288;6.056;2023-01-30T00:50:37;101555.84;;;5.43;100.00
69751;BME280;57335;52.288;6.056;2023-01-30T00:53:03;101553.28;;;5.51;100.00
69751;BME280;57335;52.288;6.056;2023-01-30T00:55:29;101513.81;;;5.47;100.00
69751;BME280;57335;52.288;6.056;2023-01-30T00:57:56;101531.84;;;5.57;100.00
69751;BME280;57335;52.288;6.056;2023-01-30T01:00:22;101518.38;;;5.53;100.00
69751;BME280;57335;52.288;6.056;2023-01-30T01:02:48;101529.63;;;5.62;100.00
69751;BME280;57335;52.288;6.056;2023-01-30T01:05:15;101520.03;;;5.63;100.00
69751;BME280;57335;52.288;6.056;2023-01-30T01:07:42;101504.78;;;5.68;100.00
69751;BME280;57335;52.288;6.056;2023-01-30T01:10:08;101497.13;;;5.66;100.00
69751;BME280;57335;52.288;6.056;2023-01-30T01:12:35;101502.06;;;5.77;100.00
69751;BME280;57335;52.288;6.056;2023-01-30T01:15:01;101506.78;;;5.82;100.00
69751;BME280;57335;52.288;6.056;2023-01-30T01:17:28;101494.28;;;5.86;100.00
69751;BME280;57335;52.288;6.056;2023-01-30T01:19:54;101487.94;;;5.88;100.00
69751;BME280;57335;52.288;6.056;2023-01-30T01:22:20;101479.97;;;5.90;100.00
69751;BME280;57335;52.288;6.056;2023-01-30T01:24:47;101478.84;;;5.92;100.00
69751;BME280;57335;52.288;6.056;2023-01-30T01:27:13;101460.78;;;5.91;100.00
69751;BME280;57335;52.288;6.056;2023-01-30T01:29:39;101477.09;;;6.01;100.00
69751;BME280;57335;52.288;6.056;2023-01-30T01:32:06;101468.81;;;6.06;100.00
69751;BME280;57335;52.288;6.056;2023-01-30T01:34:32;101462.47;;;6.08;100.00
69751;BME280;57335;52.288;6.056;2023-01-30T01:36:58;101451.72;;;6.11;100.00
69751;BME280;57335;52.288;6.056;2023-01-30T01:39:25;101459.88;;;6.16;100.00
69751;BME280;57335;52.288;6.056;2023-01-30T01:41:51;101456.13;;;6.19;100.00
69751;BME280;57335;52.288;6.056;2023-01-30T01:44:17;101460.03;;;6.23;100.00
69751;BME280;57335;52.288;6.056;2023-01-30T01:46:56;101469.31;;;6.26;100.00
69751;BME280;57335;52.288;6.056;2023-01-30T01:49:28;101468.19;;;6.28;100.00
69751;BME280;57335;52.288;6.056;2023-01-30T01:52:02;101457.78;;;6.28;100.00
69751;BME280;57335;52.288;6.056;2023-01-30T01:54:50;101477.44;;;6.39;100.00
69751;BME280;57335;52.288;6.056;2023-01-30T01:57:32;101466.06;;;6.40;100.00
69751;BME280;57335;52.288;6.056;2023-01-30T02:00:05;101469.16;;;6.44;100.00
69751;BME280;57335;52.288;6.056;2023-01-30T02:02:33;101453.72;;;6.42;100.00
69751;BME280;57335;52.288;6.056;2023-01-30T02:05:00;101464.44;;;6.47;100.00
69751;BME280;57335;52.288;6.056;2023-01-30T02:07:40;101448.66;;;6.49;100.00
69751;BME280;57335;52.288;6.056;2023-01-30T02:10:14;101445.88;;;6.50;100.00
69751;BME280;57335;52.288;6.056;2023-01-30T02:12:41;101451.25;;;6.49;100.00
69751;BME280;57335;52.288;6.056;2023-01-30T02:15:09;101450.94;;;6.52;100.00
69751;BME280;57335;52.288;6.056;2023-01-30T02:17:35;101449.94;;;6.53;100.00
69751;BME280;57335;52.288;6.056;2023-01-30T02:20:22;101443.28;;;6.50;100.00
69751;BME280;57335;52.288;6.056;2023-01-30T02:31:49;101423.41;;;6.49;100.00
69751;BME280;57335;52.288;6.056;2023-01-30T02:45:35;101435.31;;;6.60;100.00
69751;BME280;57335;52.288;6.056;2023-01-30T02:48:13;101418.88;;;6.59;100.00
69751;BME280;57335;52.288;6.056;2023-01-30T02:51:06;101408.78;;;6.56;100.00
69751;BME280;57335;52.288;6.056;2023-01-30T02:53:32;101426.34;;;6.63;100.00
69751;BME280;57335;52.288;6.056;2023-01-30T02:56:00;101419.84;;;6.58;100.00
69751;BME280;57335;52.288;6.056;2023-01-30T02:58:30;101416.91;;;6.62;100.00
69751;BME280;57335;52.288;6.056;2023-01-30T03:04:19;101413.00;;;6.66;100.00
69751;BME280;57335;52.288;6.056;2023-01-30T03:07:10;101417.38;;;6.65;100.00
69751;BME280;57335;52.288;6.056;2023-01-30T03:09:46;101417.88;;;6.61;100.00
69751;BME280;57335;52.288;6.056;2023-01-30T03:12:25;101423.06;;;6.69;100.00
69751;BME280;57335;52.288;6.056;2023-01-30T03:15:24;101406.47;;;6.70;100.00
69751;BME280;57335;52.288;6.056;2023-01-30T03:17:53;101410.03;;;6.69;100.00
69751;BME280;57335;52.288;6.056;2023-01-30T03:20:20;101406.13;;;6.73;100.00
69751;BME280;57335;52.288;6.056;2023-01-30T03:22:47;101397.66;;;6.71;100.00
69751;BME280;57335;52.288;6.056;2023-01-30T03:25:18;101398.66;;;6.70;100.00
69751;BME280;57335;52.288;6.056;2023-01-30T03:27:46;101403.38;;;6.74;100.00
69751;BME280;57335;52.288;6.056;2023-01-30T03:30:14;101382.56;;;6.66;100.00
69751;BME280;57335;52.288;6.056;2023-01-30T03:32:40;101374.06;;;6.72;100.00
69751;BME280;57335;52.288;6.056;2023-01-30T03:35:07;101394.09;;;6.72;100.00
69751;BME280;57335;52.288;6.056;2023-01-30T03:37:33;101391.50;;;6.72;100.00
69751;BME280;57335;52.288;6.056;2023-01-30T03:40:00;101372.91;;;6.75;100.00
69751;BME280;57335;52.288;6.056;2023-01-30T03:42:27;101383.16;;;6.76;100.00
69751;BME280;57335;52.288;6.056;2023-01-30T03:44:53;101383.66;;;6.80;100.00
69751;BME280;57335;52.288;6.056;2023-01-30T03:47:20;101388.88;;;6.80;100.00
69751;BME280;57335;52.288;6.056;2023-01-30T03:49:46;101384.94;;;6.84;100.00
69751;BME280;57335;52.288;6.056;2023-01-30T03:52:12;101382.19;;;6.86;100.00
69751;BME280;57335;52.288;6.056;2023-01-30T03:54:39;101388.50;;;6.91;100.00
69751;BME280;57335;52.288;6.056;2023-01-30T03:57:05;101392.09;;;6.90;100.00
69751;BME280;57335;52.288;6.056;2023-01-30T03:59:32;101386.88;;;6.90;100.00
69751;BME280;57335;52.288;6.056;2023-01-30T04:01:58;101394.34;;;6.93;100.00
69751;BME280;57335;52.288;6.056;2023-01-30T04:04:25;101396.16;;;6.93;100.00
69751;BME280;57335;52.288;6.056;2023-01-30T04:06:51;101392.09;;;6.90;100.00
69751;BME280;57335;52.288;6.056;2023-01-30T04:09:18;101396.50;;;6.90;100.00
69751;BME280;57335;52.288;6.056;2023-01-30T04:11:44;101392.72;;;6.92;100.00
69751;BME280;57335;52.288;6.056;2023-01-30T04:14:10;101394.34;;;6.93;100.00
69751;BME280;57335;52.288;6.056;2023-01-30T04:16:37;101375.00;;;6.88;100.00
69751;BME280;57335;52.288;6.056;2023-01-30T04:19:03;101404.75;;;6.93;100.00
69751;BME280;57335;52.288;6.056;2023-01-30T04:21:30;101377.63;;;6.88;100.00
69751;BME280;57335;52.288;6.056;2023-01-30T04:23:56;101383.47;;;6.90;100.00
69751;BME280;57335;52.288;6.056;2023-01-30T04:26:22;101382.97;;;6.94;100.00
69751;BME280;57335;52.288;6.056;2023-01-30T04:28:49;101394.03;;;6.96;100.00
69751;BME280;57335;52.288;6.056;2023-01-30T04:31:15;101375.94;;;6.95;100.00
69751;BME280;57335;52.288;6.056;2023-01-30T04:33:42;101387.16;;;6.95;100.00
69751;BME280;57335;52.288;6.056;2023-01-30T04:36:09;101390.25;;;6.99;100.00
69751;BME280;57335;52.288;6.056;2023-01-30T04:38:36;101391.06;;;6.99;100.00
69751;BME280;57335;52.288;6.056;2023-01-30T04:41:03;101381.16;;;6.95;100.00
69751;BME280;57335;52.288;6.056;2023-01-30T04:43:30;101390.75;;;7.03;100.00
69751;BME280;57335;52.288;6.056;2023-01-30T04:45:57;101388.78;;;7.05;100.00
69751;BME280;57335;52.288;6.056;2023-01-30T04:48:25;101384.88;;;7.01;100.00
69751;BME280;57335;52.288;6.056;2023-01-30T04:50:54;101380.31;;;7.03;100.00
69751;BME280;57335;52.288;6.056;2023-01-30T04:53:21;101370.06;;;7.01;100.00
69751;BME280;57335;52.288;6.056;2023-01-30T04:55:48;101372.50;;;7.03;100.00
69751;BME280;57335;52.288;6.056;2023-01-30T04:58:16;101369.56;;;7.06;100.00
69751;BME280;57335;52.288;6.056;2023-01-30T05:00:42;101363.56;;;6.97;100.00
69751;BME280;57335;52.288;6.056;2023-01-30T05:03:09;101355.91;;;6.95;100.00
69751;BME280;57335;52.288;6.056;2023-01-30T05:05:35;101372.19;;;6.97;100.00
69751;BME280;57335;52.288;6.056;2023-01-30T05:08:02;101367.59;;;6.99;100.00
69751;BME280;57335;52.288;6.056;2023-01-30T05:10:29;101376.59;;;6.97;100.00
69751;BME280;57335;52.288;6.056;2023-01-30T05:12:55;101376.09;;;7.02;100.00
69751;BME280;57335;52.288;6.056;2023-01-30T05:15:21;101384.09;;;7.00;100.00
69751;BME280;57335;52.288;6.056;2023-01-30T05:17:48;101367.97;;;6.96;100.00
69751;BME280;57335;52.288;6.056;2023-01-30T05:20:14;101373.13;;;7.05;100.00
69751;BME280;57335;52.288;6.056;2023-01-30T05:22:41;101371.84;;;7.01;100.00
69751;BME280;57335;52.288;6.056;2023-01-30T05:25:07;101382.75;;;7.04;100.00
69751;BME280;57335;52.288;6.056;2023-01-30T05:27:34;101384.38;;;7.05;100.00
69751;BME280;57335;52.288;6.056;2023-01-30T05:30:00;101391.25;;;6.98;100.00
69751;BME280;57335;52.288;6.056;2023-01-30T05:32:27;101376.75;;;6.95;100.00
69751;BME280;57335;52.288;6.056;2023-01-30T05:34:53;101387.38;;;6.94;100.00
69751;BME280;57335;52.288;6.056;2023-01-30T05:37:20;101390.63;;;6.88;100.00
69751;BME280;57335;52.288;6.056;2023-01-30T05:39:46;101396.00;;;6.86;100.00
69751;BME280;57335;52.288;6.056;2023-01-30T05:42:13;101401.91;;;6.72;100.00
69751;BME280;57335;52.288;6.056;2023-01-30T05:44:40;101390.50;;;6.73;100.00
69751;BME280;57335;52.288;6.056;2023-01-30T05:47:06;101396.06;;;6.70;100.00
69751;BME280;57335;52.288;6.056;2023-01-30T05:49:33;101388.28;;;6.62;100.00
69751;BME280;57335;52.288;6.056;2023-01-30T05:51:59;101404.38;;;6.57;100.00
69751;BME280;57335;52.288;6.056;2023-01-30T05:54:25;101394.63;;;6.43;100.00
69751;BME280;57335;52.288;6.056;2023-01-30T05:56:52;101397.88;;;6.45;100.00
69751;BME280;57335;52.288;6.056;2023-01-30T05:59:18;101400.66;;;6.35;100.00
69751;BME280;57335;52.288;6.056;2023-01-30T06:01:45;101399.19;;;6.32;100.00
69751;BME280;57335;52.288;6.056;2023-01-30T06:04:11;101403.75;;;6.30;100.00
69751;BME280;57335;52.288;6.056;2023-01-30T06:06:38;101400.00;;;6.25;100.00
69751;BME280;57335;52.288;6.056;2023-01-30T06:09:04;101415.63;;;6.25;100.00
69751;BME280;57335;52.288;6.056;2023-01-30T06:11:30;101416.63;;;6.15;100.00
69751;BME280;57335;52.288;6.056;2023-01-30T06:13:57;101423.09;;;6.03;100.00
69751;BME280;57335;52.288;6.056;2023-01-30T06:16:23;101438.06;;;6.01;100.00
69751;BME280;57335;52.288;6.056;2023-01-30T06:18:49;101418.03;;;5.93;100.00
69751;BME280;57335;52.288;6.056;2023-01-30T06:21:16;101432.50;;;5.88;100.00
69751;BME280;57335;52.288;6.056;2023-01-30T06:23:42;101437.03;;;5.86;100.00
69751;BME280;57335;52.288;6.056;2023-01-30T06:26:09;101436.38;;;5.75;100.00
69751;BME280;57335;52.288;6.056;2023-01-30T06:28:36;101445.28;;;5.73;100.00
69751;BME280;57335;52.288;6.056;2023-01-30T06:31:05;101441.50;;;5.59;100.00
69751;BME280;57335;52.288;6.056;2023-01-30T06:33:31;101434.19;;;5.54;100.00
69751;BME280;57335;52.288;6.056;2023-01-30T06:35:58;101432.38;;;5.47;100.00
69751;BME280;57335;52.288;6.056;2023-01-30T06:38:24;101432.88;;;5.50;100.00
69751;BME280;57335;52.288;6.056;2023-01-30T06:40:51;101420.16;;;5.39;100.00
69751;BME280;57335;52.288;6.056;2023-01-30T06:43:18;101418.38;;;5.31;100.00
69751;BME280;57335;52.288;6.056;2023-01-30T06:45:44;101427.47;;;5.35;100.00
69751;BME280;57335;52.288;6.056;2023-01-30T06:48:11;101438.94;;;5.25;100.00
69751;BME280;57335;52.288;6.056;2023-01-30T06:50:37;101445.59;;;5.19;100.00
69751;BME280;57335;52.288;6.056;2023-01-30T06:53:06;101444.31;;;5.23;100.00
69751;BME280;57335;52.288;6.056;2023-01-30T06:55:33;101452.09;;;5.23;100.00
69751;BME280;57335;52.288;6.056;2023-01-30T06:58:09;101455.97;;;5.19;100.00
69751;BME280;57335;52.288;6.056;2023-01-30T07:00:37;101460.84;;;5.14;100.00
69751;BME280;57335;52.288;6.056;2023-01-30T07:03:12;101449.75;;;5.04;100.00
69751;BME280;57335;52.288;6.056;2023-01-30T07:05:41;101467.94;;;5.04;100.00
69751;BME280;57335;52.288;6.056;2023-01-30T07:08:08;101477.19;;;5.06;100.00
69751;BME280;57335;52.288;6.056;2023-01-30T07:10:35;101478.66;;;5.09;100.00
69751;BME280;57335;52.288;6.056;2023-01-30T07:13:02;101488.25;;;5.08;100.00
69751;BME280;57335;52.288;6.056;2023-01-30T07:15:30;101477.00;;;4.99;100.00
69751;BME280;57335;52.288;6.056;2023-01-30T07:17:57;101476.63;;;4.94;100.00
69751;BME280;57335;52.288;6.056;2023-01-30T07:20:23;101480.56;;;4.98;100.00
69751;BME280;57335;52.288;6.056;2023-01-30T07:22:54;101464.44;;;4.95;100.00
69751;BME280;57335;52.288;6.056;2023-01-30T07:25:23;101468.88;;;5.03;100.00
69751;BME280;57335;52.288;6.056;2023-01-30T07:27:51;101467.94;;;5.04;100.00
69751;BME280;57335;52.288;6.056;2023-01-30T07:30:17;101483.38;;;5.05;100.00
69751;BME280;57335;52.288;6.056;2023-01-30T07:32:47;101471.63;;;5.01;100.00
69751;BME280;57335;52.288;6.056;2023-01-30T07:35:14;101480.44;;;5.08;99.79
69751;BME280;57335;52.288;6.056;2023-01-30T07:37:44;101465.06;;;5.15;100.00
69751;BME280;57335;52.288;6.056;2023-01-30T07:40:11;101466.81;;;5.06;99.59
69751;BME280;57335;52.288;6.056;2023-01-30T07:42:37;101483.09;;;5.16;99.49
69751;BME280;57335;52.288;6.056;2023-01-30T07:45:04;101470.91;;;5.17;99.32
69751;BME280;57335;52.288;6.056;2023-01-30T07:47:30;101486.06;;;5.22;99.25
69751;BME280;57335;52.288;6.056;2023-01-30T07:49:57;101496.44;;;5.22;98.65
69751;BME280;57335;52.288;6.056;2023-01-30T07:52:23;101482.31;;;5.24;99.00
69751;BME280;57335;52.288;6.056;2023-01-30T07:54:50;101490.16;;;5.32;98.40
69751;BME280;57335;52.288;6.056;2023-01-30T07:57:16;101505.47;;;5.35;97.22
69751;BME280;57335;52.288;6.056;2023-01-30T07:59:42;101498.97;;;5.39;96.77
69751;BME280;57335;52.288;6.056;2023-01-30T08:02:09;101505.69;;;5.50;96.39
69751;BME280;57335;52.288;6.056;2023-01-30T08:04:36;101498.03;;;5.49;96.43
69751;BME280;57335;52.288;6.056;2023-01-30T08:07:02;101508.78;;;5.54;95.52
69751;BME280;57335;52.288;6.056;2023-01-30T08:09:29;101514.16;;;5.60;94.08
69751;BME280;57335;52.288;6.056;2023-01-30T08:11:55;101521.50;;;5.65;93.31
69751;BME280;57335;52.288;6.056;2023-01-30T08:14:21;101515.69;;;5.71;93.45
69751;BME280;57335;52.288;6.056;2023-01-30T08:16:48;101508.53;;;5.73;92.89
69751;BME280;57335;52.288;6.056;2023-01-30T08:19:14;101502.84;;;5.78;93.51
69751;BME280;57335;52.288;6.056;2023-01-30T08:21:41;101506.25;;;5.78;93.48
69751;BME280;57335;52.288;6.056;2023-01-30T08:24:07;101501.72;;;5.80;92.89
69751;BME280;57335;52.288;6.056;2023-01-30T08:26:34;101504.69;;;5.86;92.72
69751;BME280;57335;52.288;6.056;2023-01-30T08:29:00;101514.16;;;5.95;92.39
69751;BME280;57335;52.288;6.056;2023-01-30T08:31:26;101524.25;;;5.98;91.82
69751;BME280;57335;52.288;6.056;2023-01-30T08:33:53;101516.28;;;5.99;91.86
69751;BME280;57335;52.288;6.056;2023-01-30T08:36:19;101538.88;;;6.07;90.94
69751;BME280;57335;52.288;6.056;2023-01-30T08:38:45;101527.53;;;6.08;91.12
69751;BME280;57335;52.288;6.056;2023-01-30T08:41:12;101532.88;;;6.07;90.65
69751;BME280;57335;52.288;6.056;2023-01-30T08:43:39;101542.66;;;6.13;91.17
69751;BME280;57335;52.288;6.056;2023-01-30T08:46:06;101538.59;;;6.10;91.09
69751;BME280;57335;52.288;6.056;2023-01-30T08:48:32;101553.22;;;6.11;90.59
69751;BME280;57335;52.288;6.056;2023-01-30T08:51:14;101533.88;;;6.06;90.02
69751;BME280;57335;52.288;6.056;2023-01-30T08:53:40;101568.03;;;6.19;90.85
69751;BME280;57335;52.288;6.056;2023-01-30T08:56:07;101555.22;;;6.17;89.64
69751;BME280;57335;52.288;6.056;2023-01-30T08:58:33;101555.88;;;6.19;89.70
69751;BME280;57335;52.288;6.056;2023-01-30T09:01:04;101567.22;;;6.18;89.98
69751;BME280;57335;52.288;6.056;2023-01-30T09:03:31;101563.03;;;6.26;90.96
69751;BME280;57335;52.288;6.056;2023-01-30T09:05:57;101571.50;;;6.28;89.70
69751;BME280;57335;52.288;6.056;2023-01-30T09:08:23;101568.56;;;6.31;90.06
69751;BME280;57335;52.288;6.056;2023-01-30T09:10:50;101574.09;;;6.28;88.82
69751;BME280;57335;52.288;6.056;2023-01-30T09:13:16;101575.72;;;6.37;89.74
69751;BME280;57335;52.288;6.056;2023-01-30T09:15:43;101573.47;;;6.42;89.75
69751;BME280;57335;52.288;6.056;2023-01-30T09:18:10;101559.31;;;6.36;89.20
69751;BME280;57335;52.288;6.056;2023-01-30T09:20:36;101567.94;;;6.45;88.26
69751;BME280;57335;52.288;6.056;2023-01-30T09:23:02;101565.16;;;6.47;88.37
69751;BME280;57335;52.288;6.056;2023-01-30T09:25:29;101566.81;;;6.48;88.62
69751;BME280;57335;52.288;6.056;2023-01-30T09:27:55;101569.41;;;6.48;88.57
69751;BME280;57335;52.288;6.056;2023-01-30T09:30:21;101564.84;;;6.42;89.22
69751;BME280;57335;52.288;6.056;2023-01-30T09:32:48;101560.13;;;6.45;87.96
69751;BME280;57335;52.288;6.056;2023-01-30T09:35:14;101570.53;;;6.53;89.01
69751;BME280;57335;52.288;6.056;2023-01-30T09:37:52;101571.88;;;6.57;89.07
69751;BME280;57335;52.288;6.056;2023-01-30T09:40:30;101571.53;;;6.61;87.90
69751;BME280;57335;52.288;6.056;2023-01-30T09:43:13;101579.19;;;6.70;88.51
69751;BME280;57335;52.288;6.056;2023-01-30T09:48:35;101593.19;;;6.77;88.08
69751;BME280;57335;52.288;6.056;2023-01-30T09:51:29;101605.25;;;6.87;87.97
69751;BME280;57335;52.288;6.056;2023-01-30T09:54:09;101586.84;;;6.80;87.15
69751;BME280;57335;52.288;6.056;2023-01-30T09:56:40;101603.28;;;6.89;86.96
69751;BME280;57335;52.288;6.056;2023-01-30T09:59:22;101618.63;;;6.84;86.59
69751;BME280;57335;52.288;6.056;2023-01-30T10:02:00;101622.03;;;6.84;87.18
69751;BME280;57335;52.288;6.056;2023-01-30T10:04:35;101624.13;;;6.81;85.71
69751;BME280;57335;52.288;6.056;2023-01-30T10:23:51;101618.78;;;6.90;84.74
69751;BME280;57335;52.288;6.056;2023-01-30T10:26:24;101623.19;;;6.90;85.13
69751;BME280;57335;52.288;6.056;2023-01-30T10:29:23;101611.28;;;6.79;83.48
69751;BME280;57335;52.288;6.056;2023-01-30T10:36:59;101613.56;;;6.90;84.10
69751;BME280;57335;52.288;6.056;2023-01-30T10:39:44;101615.69;;;6.95;83.20
69751;BME280;57335;52.288;6.056;2023-01-30T10:42:30;101633.41;;;6.99;84.24
69751;BME280;57335;52.288;6.056;2023-01-30T10:45:09;101636.72;;;7.02;83.22
69751;BME280;57335;52.288;6.056;2023-01-30T10:53:32;101636.53;;;7.11;81.71
69751;BME280;57335;52.288;6.056;2023-01-30T10:58:50;101633.59;;;7.23;83.44
69751;BME280;57335;52.288;6.056;2023-01-30T11:01:24;101633.44;;;7.32;82.61
69751;BME280;57335;52.288;6.056;2023-01-30T11:06:26;101634.00;;;7.67;84.06
69751;BME280;57335;52.288;6.056;2023-01-30T11:08:54;101636.38;;;7.93;83.56
69751;BME280;57335;52.288;6.056;2023-01-30T11:11:28;101636.59;;;8.23;81.57
69751;BME280;57335;52.288;6.056;2023-01-30T11:14:06;101634.72;;;8.40;80.00
69751;BME280;57335;52.288;6.056;2023-01-30T11:16:42;101624.44;;;8.38;78.37
69751;BME280;57335;52.288;6.056;2023-01-30T11:19:09;101639.03;;;8.25;78.68
69751;BME280;57335;52.288;6.056;2023-01-30T11:21:48;101624.91;;;8.11;79.46
69751;BME280;57335;52.288;6.056;2023-01-30T11:24:21;101636.22;;;7.95;79.48
69751;BME280;57335;52.288;6.056;2023-01-30T11:26:48;101631.69;;;7.81;79.03
69751;BME280;57335;52.288;6.056;2023-01-30T11:29:30;101638.22;;;7.85;79.42
69751;BME280;57335;52.288;6.056;2023-01-30T11:32:11;101649.47;;;7.77;79.88
69751;BME280;57335;52.288;6.056;2023-01-30T11:34:40;101650.94;;;7.79;80.75
69751;BME280;57335;52.288;6.056;2023-01-30T11:37:24;101653.88;;;7.85;81.24
69751;BME280;57335;52.288;6.056;2023-01-30T11:39:53;101649.44;;;7.85;81.46
69751;BME280;57335;52.288;6.056;2023-01-30T11:42:23;101647.19;;;7.82;80.73
69751;BME280;57335;52.288;6.056;2023-01-30T11:44:59;101653.88;;;7.85;80.98
69751;BME280;57335;52.288;6.056;2023-01-30T11:48:03;101667.56;;;7.87;80.53
69751;BME280;57335;52.288;6.056;2023-01-30T11:50:39;101655.97;;;7.89;79.59
69751;BME280;57335;52.288;6.056;2023-01-30T11:55:43;101654.47;;;7.95;80.08
69751;BME280;57335;52.288;6.056;2023-01-30T11:58:35;101660.50;;;7.95;79.73
69751;BME280;57335;52.288;6.056;2023-01-30T12:01:03;101649.81;;;7.82;79.47
69751;BME280;57335;52.288;6.056;2023-01-30T12:03:30;101656.59;;;7.91;79.85
69751;BME280;57335;52.288;6.056;2023-01-30T12:05:57;101665.41;;;7.98;80.44
69751;BME280;57335;52.288;6.056;2023-01-30T12:08:31;101667.66;;;8.02;79.79
69751;BME280;57335;52.288;6.056;2023-01-30T12:14:16;101676.13;;;8.12;79.85
69751;BME280;57335;52.288;6.056;2023-01-30T12:17:24;101675.66;;;8.08;78.76
69751;BME280;57335;52.288;6.056;2023-01-30T12:20:02;101673.50;;;8.20;79.43
69751;BME280;57335;52.288;6.056;2023-01-30T12:22:41;101679.81;;;8.26;78.60
69751;BME280;57335;52.288;6.056;2023-01-30T12:25:31;101682.94;;;8.21;78.33
69751;BME280;57335;52.288;6.056;2023-01-30T12:30:51;101698.13;;;8.17;79.24
69751;BME280;57335;52.288;6.056;2023-01-30T12:33:21;101694.03;;;8.23;78.92
69751;BME280;57335;52.288;6.056;2023-01-30T12:38:43;101688.28;;;8.28;78.42
69751;BME280;57335;52.288;6.056;2023-01-30T12:41:28;101709.66;;;8.31;78.81
69751;BME280;57335;52.288;6.056;2023-01-30T12:44:25;101699.38;;;8.30;77.36
69751;BME280;57335;52.288;6.056;2023-01-30T12:50:05;101693.66;;;8.34;75.70
69751;BME280;57335;52.288;6.056;2023-01-30T12:52:58;101709.97;;;8.36;77.11
69751;BME280;57335;52.288;6.056;2023-01-30T12:56:22;101705.59;;;8.29;76.84
69751;BME280;57335;52.288;6.056;2023-01-30T13:04:21;101716.38;;;8.34;76.52
69751;BME280;57335;52.288;6.056;2023-01-30T13:09:44;101723.31;;;8.50;77.63
69751;BME280;57335;52.288;6.056;2023-01-30T13:18:25;101722.03;;;8.37;77.97
69751;BME280;57335;52.288;6.056;2023-01-30T13:23:27;101731.84;;;8.35;76.79
69751;BME280;57335;52.288;6.056;2023-01-30T13:28:25;101747.28;;;8.06;79.42
69751;BME280;57335;52.288;6.056;2023-01-30T13:30:53;101752.69;;;7.96;80.89
69751;BME280;57335;52.288;6.056;2023-01-30T13:33:24;101763.94;;;7.96;82.47
69751;BME280;57335;52.288;6.056;2023-01-30T13:35:55;101762.78;;;8.07;80.39
69751;BME280;57335;52.288;6.056;2023-01-30T13:38:27;101757.72;;;8.14;81.09
69751;BME280;57335;52.288;6.056;2023-01-30T13:40:57;101762.72;;;8.24;80.65
69751;BME280;57335;52.288;6.056;2023-01-30T13:43:29;101767.28;;;8.38;78.72
69751;BME280;57335;52.288;6.056;2023-01-30T13:46:00;101771.38;;;8.32;77.49
69751;BME280;57335;52.288;6.056;2023-01-30T13:48:44;101760.66;;;8.11;76.35
69751;BME280;57335;52.288;6.056;2023-01-30T13:56:24;101778.63;;;7.97;79.49
69751;BME280;57335;52.288;6.056;2023-01-30T13:59:09;101785.63;;;8.05;79.17
69751;BME280;57335;52.288;6.056;2023-01-30T14:12:33;101798.06;;;7.62;79.34
69751;BME280;57335;52.288;6.056;2023-01-30T14:17:32;101823.81;;;7.73;78.14
69751;BME280;57335;52.288;6.056;2023-01-30T14:20:01;101823.34;;;7.70;78.89
69751;BME280;57335;52.288;6.056;2023-01-30T14:22:37;101826.09;;;7.76;77.57
69751;BME280;57335;52.288;6.056;2023-01-30T14:30:44;101848.78;;;7.68;77.87
69751;BME280;57335;52.288;6.056;2023-01-30T14:45:51;101871.56;;;7.49;78.48
69751;BME280;57335;52.288;6.056;2023-01-30T14:48:29;101879.88;;;7.53;79.43
69751;BME280;57335;52.288;6.056;2023-01-30T14:56:48;101904.28;;;7.35;79.30
69751;BME280;57335;52.288;6.056;2023-01-30T14:59:33;101912.13;;;7.44;79.59
69751;BME280;57335;52.288;6.056;2023-01-30T15:05:06;101914.06;;;7.42;80.74
69751;BME280;57335;52.288;6.056;2023-01-30T15:07:43;101927.72;;;7.27;80.64
69751;BME280;57335;52.288;6.056;2023-01-30T15:10:28;101926.06;;;7.18;81.31
69751;BME280;57335;52.288;6.056;2023-01-30T15:13:29;101926.53;;;7.13;80.98
69751;BME280;57335;52.288;6.056;2023-01-30T15:22:15;101943.25;;;7.03;81.34
69751;BME280;57335;52.288;6.056;2023-01-30T15:27:49;101962.13;;;6.96;82.05
69751;BME280;57335;52.288;6.056;2023-01-30T15:30:45;101957.06;;;6.95;82.08
69751;BME280;57335;52.288;6.056;2023-01-30T15:33:18;101965.53;;;6.97;81.82
69751;BME280;57335;52.288;6.056;2023-01-30T15:35:56;101966.53;;;6.96;82.54
69751;BME280;57335;52.288;6.056;2023-01-30T15:38:31;101973.22;;;6.98;82.34
69751;BME280;57335;52.288;6.056;2023-01-30T15:41:00;101988.84;;;6.98;82.99